Time;durP1;ratioP1;P1;durP2;ratioP2;P2;SDS_P1;SDS_P2;PMS_P1;PMS_P2;Temp;Humidity;BMP_temperature;BMP_pressure;BME280_temperature;BME280_humidity;BME280_pressure;Samples;Min_cycle;Max_cycle;Signal;HPM_P1;HPM_P2
2023/01/29 00:02:22;;;;;;;;;;;;;;;;;;4979591;28;19994;-76
2023/01/29 00:04:48;;;;;;;;;;;;;;;;;;4998131;28;19981;-76
2023/01/29 00:07:14;;;;;;;;;;;;;;;;;;4985091;28;19929;-76
2023/01/29 00:09:41;;;;;;;;;;;;;;;;;;4994167;28;19921;-75
2023/01/29 00:12:10;;;;;;;;;;;;;;;;;;5005876;28;20534;-75
2023/01/29 00:14:36;;;;;;;;;;;;;;;;;;4983250;28;20031;-75
2023/01/29 00:17:02;;;;;;;;;;;;;;;;;;4978749;28;19921;-75
2023/01/29 00:19:28;;;;;;;;;;;;;;;;;;4990984;28;19922;-74
2023/01/29 00:21:55;;;;;;;;;;;;;;;;;;4974538;28;20328;-75
2023/01/29 00:24:21;;;;;;;;;;;;;;;;;;4977864;28;19971;-75
2023/01/29 00:26:49;;;;;;;;;;;;;;;;;;4977495;28;19921;-74
2023/01/29 00:29:16;;;;;;;;;;;;;;;;;;4981248;28;20325;-75
2023/01/29 00:31:42;;;;;;;;;;;;;;;;;;4981525;28;19925;-75
2023/01/29 00:34:09;;;;;;;;;;;;;;;;;;4993271;28;19969;-75
2023/01/29 00:36:35;;;;;;;;;;;;;;;;;;4997499;28;19960;-76
2023/01/29 00:39:09;;;;;;;;;;;;;;;;;;4963653;28;19926;-75
2023/01/29 00:47:29;;;;;;;;;;;;;;;;;;4981526;28;19926;-76
2023/01/29 00:49:54;;;;;;;;;;;;;;;;;;4968141;28;19928;-76
2023/01/29 00:52:23;;;;;;;;;;;;;;;;;;4986949;28;20017;-75
2023/01/29 00:54:50;;;;;;;;;;;;;;;;;;4972360;28;19914;-76
2023/01/29 00:57:16;;;;;;;;;;;;;;;;;;5009205;28;19917;-77
2023/01/29 00:59:42;;;;;;;;;;;;;;;;;;4971277;28;19941;-75
2023/01/29 01:04:54;;;;;;;;;;;;;;;;;;4977785;28;20015;-75
2023/01/29 01:07:20;;;;;;;;;;;;;;;;;;4991112;28;19937;-74
2023/01/29 01:12:31;;;;;;;;;;;;;;;;;;4981213;28;19918;-78
2023/01/29 01:14:57;;;;;;;;;;;;;;;;;;4979360;28;19918;-76
2023/01/29 01:17:23;;;;;;;;;;;;;;;;;;5001574;28;19921;-76
2023/01/29 01:19:53;;;;;;;;;;;;;;;;;;4990092;28;19921;-77
2023/01/29 01:22:19;;;;;;;;;;;;;;;;;;5004417;28;19962;-76
2023/01/29 01:24:45;;;;;;;;;;;;;;;;;;4983907;28;20479;-76
2023/01/29 01:27:11;;;;;;;;;;;;;;;;;;4981066;28;19922;-76
2023/01/29 01:29:37;;;;;;;;;;;;;;;;;;5007351;28;19922;-76
2023/01/29 01:32:04;;;;;;;;;;;;;;;;;;4974578;28;20346;-76
2023/01/29 01:34:30;;;;;;;;;;;;;;;;;;4981282;28;19913;-76
2023/01/29 01:36:56;;;;;;;;;;;;;;;;;;4989788;28;19921;-76
2023/01/29 01:39:22;;;;;;;;;;;;;;;;;;4987656;28;19922;-77
2023/01/29 01:41:49;;;;;;;;;;;;;;;;;;5003358;28;19925;-77
2023/01/29 01:44:15;;;;;;;;;;;;;;;;;;4983712;28;20658;-75
2023/01/29 01:46:41;;;;;;;;;;;;;;;;;;4986159;28;19929;-76
2023/01/29 01:49:07;;;;;;;;;;;;;;;;;;5012854;28;19925;-75
2023/01/29 01:51:33;;;;;;;;;;;;;;;;;;4973361;28;19973;-75
2023/01/29 01:54:00;;;;;;;;;;;;;;;;;;4976378;28;19925;-76
2023/01/29 01:56:27;;;;;;;;;;;;;;;;;;4995228;28;19979;-75
2023/01/29 01:58:53;;;;;;;;;;;;;;;;;;5006728;28;19963;-76
2023/01/29 02:01:26;;;;;;;;;;;;;;;;;;4993620;28;20637;-75
2023/01/29 02:09:34;;;;;;;;;;;;;;;;;;5000418;28;20381;-75
2023/01/29 02:12:01;;;;;;;;;;;;;;;;;;4990882;28;19941;-76
2023/01/29 02:14:27;;;;;;;;;;;;;;;;;;4988475;28;19921;-76
2023/01/29 02:16:53;;;;;;;;;;;;;;;;;;4988920;28;19976;-76
2023/01/29 02:19:19;;;;;;;;;;;;;;;;;;4973504;28;19922;-76
2023/01/29 02:21:45;;;;;;;;;;;;;;;;;;4974365;28;19925;-76
2023/01/29 02:24:12;;;;;;;;;;;;;;;;;;4984773;28;19921;-76
2023/01/29 02:26:38;;;;;;;;;;;;;;;;;;4983164;28;20020;-76
2023/01/29 02:29:21;;;;;;;;;;;;;;;;;;5003033;28;20293;-76
2023/01/29 02:31:47;;;;;;;;;;;;;;;;;;5001988;28;19941;-76
2023/01/29 02:34:13;;;;;;;;;;;;;;;;;;4993216;28;19917;-75
2023/01/29 02:36:39;;;;;;;;;;;;;;;;;;5001500;28;19979;-76
2023/01/29 02:39:06;;;;;;;;;;;;;;;;;;4993890;28;19949;-76
2023/01/29 02:41:32;;;;;;;;;;;;;;;;;;4988956;28;19925;-74
2023/01/29 02:43:59;;;;;;;;;;;;;;;;;;5005107;28;19984;-76
2023/01/29 02:46:25;;;;;;;;;;;;;;;;;;4991517;28;19929;-76
2023/01/29 02:48:51;;;;;;;;;;;;;;;;;;4984343;28;20329;-76
2023/01/29 02:51:18;;;;;;;;;;;;;;;;;;4984741;28;20389;-78
2023/01/29 02:53:44;;;;;;;;;;;;;;;;;;4985537;28;19932;-76
2023/01/29 02:56:10;;;;;;;;;;;;;;;;;;4985082;28;19972;-77
2023/01/29 02:58:36;;;;;;;;;;;;;;;;;;4978589;28;20339;-76
2023/01/29 03:01:03;;;;;;;;;;;;;;;;;;4988601;28;19917;-76
2023/01/29 03:03:29;;;;;;;;;;;;;;;;;;4981628;28;19913;-76
2023/01/29 03:05:55;;;;;;;;;;;;;;;;;;4979992;28;19983;-76
2023/01/29 03:08:22;;;;;;;;;;;;;;;;;;4988548;28;19968;-76
2023/01/29 03:10:48;;;;;;;;;;;;;;;;;;4982746;28;19929;-75
2023/01/29 03:13:14;;;;;;;;;;;;;;;;;;4991924;28;19921;-76
2023/01/29 03:15:41;;;;;;;;;;;;;;;;;;4980897;28;20387;-76
2023/01/29 03:18:07;;;;;;;;;;;;;;;;;;4984899;28;19968;-76
2023/01/29 03:20:33;;;;;;;;;;;;;;;;;;4981994;28;19914;-76
2023/01/29 03:23:00;;;;;;;;;;;;;;;;;;5003523;28;19924;-76
2023/01/29 03:33:42;;;;;;;;;;;;;;;;;;4981144;28;19917;-77
2023/01/29 03:36:08;;;;;;;;;;;;;;;;;;4986961;28;20337;-77
2023/01/29 03:38:35;;;;;;;;;;;;;;;;;;4983704;28;19984;-77
2023/01/29 03:41:01;;;;;;;;;;;;;;;;;;5000405;28;19958;-76
2023/01/29 03:43:27;;;;;;;;;;;;;;;;;;4981115;28;20600;-77
2023/01/29 03:45:54;;;;;;;;;;;;;;;;;;4970209;28;19968;-77
2023/01/29 03:48:20;;;;;;;;;;;;;;;;;;4987570;28;20003;-78
2023/01/29 03:50:46;;;;;;;;;;;;;;;;;;4995804;28;19925;-78
2023/01/29 03:53:13;;;;;;;;;;;;;;;;;;4965765;28;19929;-78
2023/01/29 03:55:39;;;;;;;;;;;;;;;;;;4974438;28;19922;-79
2023/01/29 03:58:05;;;;;;;;;;;;;;;;;;4947484;28;19919;-77
2023/01/29 04:00:32;;;;;;;;;;;;;;;;;;4946550;28;19917;-77
2023/01/29 04:02:58;;;;;;;;;;;;;;;;;;4967053;28;19917;-77
2023/01/29 04:05:24;;;;;;;;;;;;;;;;;;4964176;28;19926;-77
2023/01/29 04:07:50;;;;;;;;;;;;;;;;;;4982369;28;19921;-76
2023/01/29 04:10:16;;;;;;;;;;;;;;;;;;4984993;28;19926;-76
2023/01/29 04:12:43;;;;;;;;;;;;;;;;;;4967217;28;19968;-76
2023/01/29 04:15:09;;;;;;;;;;;;;;;;;;4963289;28;19930;-76
2023/01/29 04:17:35;;;;;;;;;;;;;;;;;;4975100;28;19929;-77
2023/01/29 04:20:01;;;;;;;;;;;;;;;;;;4960246;28;19914;-76
2023/01/29 04:22:28;;;;;;;;;;;;;;;;;;4964142;28;19948;-75
2023/01/29 04:24:54;;;;;;;;;;;;;;;;;;4968057;28;19976;-75
2023/01/29 04:27:20;;;;;;;;;;;;;;;;;;4971352;28;19958;-75
2023/01/29 04:29:46;;;;;;;;;;;;;;;;;;4976259;28;19933;-75
2023/01/29 04:32:12;;;;;;;;;;;;;;;;;;4970093;28;19922;-75
2023/01/29 04:34:39;;;;;;;;;;;;;;;;;;4984157;28;19922;-75
2023/01/29 04:37:06;;;;;;;;;;;;;;;;;;4964473;28;19937;-75
2023/01/29 04:39:32;;;;;;;;;;;;;;;;;;4957771;28;19926;-75
2023/01/29 04:41:58;;;;;;;;;;;;;;;;;;4964088;28;19918;-75
2023/01/29 04:44:25;;;;;;;;;;;;;;;;;;4967943;28;19921;-76
2023/01/29 04:46:51;;;;;;;;;;;;;;;;;;4982604;28;20017;-76
2023/01/29 04:49:17;;;;;;;;;;;;;;;;;;4969569;28;19921;-76
2023/01/29 04:51:44;;;;;;;;;;;;;;;;;;4975295;28;19934;-76
2023/01/29 04:54:10;;;;;;;;;;;;;;;;;;4997053;28;19922;-76
2023/01/29 04:56:36;;;;;;;;;;;;;;;;;;5011016;28;19925;-75
2023/01/29 04:59:02;;;;;;;;;;;;;;;;;;5000738;28;20362;-76
2023/01/29 05:01:28;;;;;;;;;;;;;;;;;;4990985;28;20011;-76
2023/01/29 05:03:55;;;;;;;;;;;;;;;;;;4979086;28;19922;-76
2023/01/29 05:06:21;;;;;;;;;;;;;;;;;;5008448;28;19925;-76
2023/01/29 05:08:47;;;;;;;;;;;;;;;;;;4989534;28;19964;-76
2023/01/29 05:11:14;;;;;;;;;;;;;;;;;;4983251;28;19983;-77
2023/01/29 05:13:40;;;;;;;;;;;;;;;;;;4975689;28;19922;-77
2023/01/29 05:16:06;;;;;;;;;;;;;;;;;;4988989;28;20409;-77
2023/01/29 05:18:33;;;;;;;;;;;;;;;;;;4975582;28;19969;-77
2023/01/29 05:20:59;;;;;;;;;;;;;;;;;;4990290;28;19918;-77
2023/01/29 05:23:25;;;;;;;;;;;;;;;;;;5008474;28;19921;-77
2023/01/29 05:25:51;;;;;;;;;;;;;;;;;;4976028;28;19975;-77
2023/01/29 05:28:17;;;;;;;;;;;;;;;;;;4983930;28;19948;-75
2023/01/29 05:30:44;;;;;;;;;;;;;;;;;;5007377;28;19914;-77
2023/01/29 05:33:10;;;;;;;;;;;;;;;;;;4987157;28;19980;-77
2023/01/29 05:35:36;;;;;;;;;;;;;;;;;;4981794;28;19918;-78
2023/01/29 05:38:02;;;;;;;;;;;;;;;;;;4988101;28;19956;-77
2023/01/29 05:40:29;;;;;;;;;;;;;;;;;;4986544;28;19918;-77
2023/01/29 05:42:55;;;;;;;;;;;;;;;;;;5006994;28;19975;-77
2023/01/29 05:45:21;;;;;;;;;;;;;;;;;;4987462;28;19972;-75
2023/01/29 05:47:47;;;;;;;;;;;;;;;;;;4992708;28;19940;-77
2023/01/29 05:50:14;;;;;;;;;;;;;;;;;;4991322;28;19918;-77
2023/01/29 05:52:40;;;;;;;;;;;;;;;;;;4991637;28;20388;-77
2023/01/29 05:55:06;;;;;;;;;;;;;;;;;;4976567;28;20365;-77
2023/01/29 05:57:32;;;;;;;;;;;;;;;;;;4990654;28;19979;-77
2023/01/29 05:59:59;;;;;;;;;;;;;;;;;;4986266;28;19921;-77
2023/01/29 06:02:25;;;;;;;;;;;;;;;;;;4990982;28;20382;-76
2023/01/29 06:04:51;;;;;;;;;;;;;;;;;;4979911;28;20624;-75
2023/01/29 06:07:17;;;;;;;;;;;;;;;;;;4985599;28;20003;-75
2023/01/29 06:09:46;;;;;;;;;;;;;;;;;;4994309;28;19917;-75
2023/01/29 06:12:12;;;;;;;;;;;;;;;;;;4992778;28;19941;-75
2023/01/29 06:14:38;;;;;;;;;;;;;;;;;;4988140;28;19929;-76
2023/01/29 06:17:05;;;;;;;;;;;;;;;;;;5010880;28;19944;-75
2023/01/29 06:19:31;;;;;;;;;;;;;;;;;;4999537;28;20014;-76
2023/01/29 06:21:57;;;;;;;;;;;;;;;;;;4989876;28;19980;-76
2023/01/29 06:24:23;;;;;;;;;;;;;;;;;;5000642;28;19917;-75
2023/01/29 06:26:50;;;;;;;;;;;;;;;;;;4993070;28;19922;-76
2023/01/29 06:29:16;;;;;;;;;;;;;;;;;;5008662;28;19922;-77
2023/01/29 06:31:42;;;;;;;;;;;;;;;;;;4989319;28;19924;-76
2023/01/29 06:34:08;;;;;;;;;;;;;;;;;;4977086;28;20712;-75
2023/01/29 06:36:35;;;;;;;;;;;;;;;;;;4987027;28;20692;-79
2023/01/29 06:39:01;;;;;;;;;;;;;;;;;;5006715;28;19961;-77
2023/01/29 06:41:27;;;;;;;;;;;;;;;;;;4987754;28;20459;-77
2023/01/29 06:43:53;;;;;;;;;;;;;;;;;;4972869;28;19918;-76
2023/01/29 06:46:20;;;;;;;;;;;;;;;;;;4985598;28;19925;-77
2023/01/29 06:48:46;;;;;;;;;;;;;;;;;;4987545;28;19921;-76
2023/01/29 06:51:12;;;;;;;;;;;;;;;;;;4980231;28;19922;-77
2023/01/29 06:53:38;;;;;;;;;;;;;;;;;;4953050;28;19943;-77
2023/01/29 06:56:05;;;;;;;;;;;;;;;;;;4976003;28;19918;-76
2023/01/29 06:58:31;;;;;;;;;;;;;;;;;;4963050;28;19926;-77
2023/01/29 07:00:57;;;;;;;;;;;;;;;;;;4961171;28;19918;-76
2023/01/29 07:03:23;;;;;;;;;;;;;;;;;;4966586;28;19954;-76
2023/01/29 07:05:50;;;;;;;;;;;;;;;;;;4983039;28;19949;-76
2023/01/29 07:08:16;;;;;;;;;;;;;;;;;;4977457;28;19922;-76
2023/01/29 07:10:42;;;;;;;;;;;;;;;;;;4979350;28;19918;-76
2023/01/29 07:13:09;;;;;;;;;;;;;;;;;;4968322;28;19988;-75
2023/01/29 07:15:35;;;;;;;;;;;;;;;;;;4958022;28;19918;-77
2023/01/29 07:18:01;;;;;;;;;;;;;;;;;;4985054;28;20633;-76
2023/01/29 07:20:27;;;;;;;;;;;;;;;;;;4971507;28;20761;-75
2023/01/29 07:22:54;;;;;;;;;;;;;;;;;;4981477;28;20362;-76
2023/01/29 07:25:20;;;;;;;;;;;;;;;;;;4978732;28;19926;-76
2023/01/29 07:27:46;;;;;;;;;;;;;;;;;;4962965;28;19917;-76
2023/01/29 07:30:12;;;;;;;;;;;;;;;;;;4963430;28;19918;-76
2023/01/29 07:32:39;;;;;;;;;;;;;;;;;;4967578;28;20028;-76
2023/01/29 07:35:05;;;;;;;;;;;;;;;;;;4948821;28;19921;-77
2023/01/29 07:37:31;;;;;;;;;;;;;;;;;;4969625;28;20378;-76
2023/01/29 07:39:58;;;;;;;;;;;;;;;;;;4955294;28;19932;-76
2023/01/29 07:42:24;;;;;;;;;;;;;;;;;;4959084;28;19922;-76
2023/01/29 07:44:50;;;;;;;;;;;;;;;;;;4961436;28;19971;-76
2023/01/29 07:47:16;;;;;;;;;;;;;;;;;;4959478;28;19918;-77
2023/01/29 07:49:42;;;;;;;;;;;;;;;;;;4983202;28;19914;-77
2023/01/29 07:52:09;;;;;;;;;;;;;;;;;;4972605;28;19943;-76
2023/01/29 07:54:35;;;;;;;;;;;;;;;;;;4979960;28;19921;-78
2023/01/29 07:57:01;;;;;;;;;;;;;;;;;;4985721;28;19921;-77
2023/01/29 07:59:27;;;;;;;;;;;;;;;;;;4987125;28;19924;-77
2023/01/29 08:01:54;;;;;;;;;;;;;;;;;;5002783;28;19918;-78
2023/01/29 08:04:20;;;;;;;;;;;;;;;;;;4965966;28;19980;-79
2023/01/29 08:06:46;;;;;;;;;;;;;;;;;;4957810;28;19930;-76
2023/01/29 08:09:12;;;;;;;;;;;;;;;;;;4979799;28;19925;-77
2023/01/29 08:11:39;;;;;;;;;;;;;;;;;;5001176;28;20424;-77
2023/01/29 08:14:07;;;;;;;;;;;;;;;;;;4981648;28;19917;-76
2023/01/29 08:16:33;;;;;;;;;;;;;;;;;;5004531;28;19929;-77
2023/01/29 08:18:59;;;;;;;;;;;;;;;;;;4976263;28;20784;-74
2023/01/29 08:21:25;;;;;;;;;;;;;;;;;;4971355;28;20664;-73
2023/01/29 08:23:52;;;;;;;;;;;;;;;;;;4969366;28;20039;-74
2023/01/29 08:26:18;;;;;;;;;;;;;;;;;;4992151;28;19968;-74
2023/01/29 08:28:44;;;;;;;;;;;;;;;;;;5009136;28;19926;-74
2023/01/29 08:31:11;;;;;;;;;;;;;;;;;;4983761;28;20436;-74
2023/01/29 08:33:37;;;;;;;;;;;;;;;;;;4981121;28;19929;-74
2023/01/29 08:36:03;;;;;;;;;;;;;;;;;;4999250;28;19917;-74
2023/01/29 08:38:29;;;;;;;;;;;;;;;;;;4979462;28;19929;-73
2023/01/29 08:40:55;;;;;;;;;;;;;;;;;;4973356;28;19944;-73
2023/01/29 08:43:22;;;;;;;;;;;;;;;;;;4982470;28;20376;-73
2023/01/29 08:45:48;;;;;;;;;;;;;;;;;;4963224;28;19934;-74
2023/01/29 08:48:14;;;;;;;;;;;;;;;;;;4966100;28;20297;-73
2023/01/29 08:50:40;;;;;;;;;;;;;;;;;;4979843;28;19922;-75
2023/01/29 08:53:07;;;;;;;;;;;;;;;;;;4983841;28;19933;-74
2023/01/29 08:55:33;;;;;;;;;;;;;;;;;;4968206;28;19918;-73
2023/01/29 08:57:59;;;;;;;;;;;;;;;;;;4984618;28;20463;-73
2023/01/29 09:00:25;;;;;;;;;;;;;;;;;;4984028;28;19918;-74
2023/01/29 09:02:51;;;;;;;;;;;;;;;;;;4968216;28;19937;-73
2023/01/29 09:05:18;;;;;;;;;;;;;;;;;;4987613;28;19933;-74
2023/01/29 09:07:44;;;;;;;;;;;;;;;;;;4984611;28;19968;-74
2023/01/29 09:10:11;;;;;;;;;;;;;;;;;;5002832;28;19921;-74
2023/01/29 09:12:37;;;;;;;;;;;;;;;;;;4978975;28;20405;-75
2023/01/29 09:15:03;;;;;;;;;;;;;;;;;;4979667;28;19992;-74
2023/01/29 09:17:29;;;;;;;;;;;;;;;;;;4978846;28;19922;-74
2023/01/29 09:19:57;;;;;;;;;;;;;;;;;;4965369;28;19933;-74
2023/01/29 09:22:23;;;;;;;;;;;;;;;;;;4970015;28;20016;-74
2023/01/29 09:24:50;;;;;;;;;;;;;;;;;;4977288;28;20000;-74
2023/01/29 09:27:16;;;;;;;;;;;;;;;;;;4981417;28;19925;-73
2023/01/29 09:29:42;;;;;;;;;;;;;;;;;;4991069;28;19968;-72
2023/01/29 09:32:08;;;;;;;;;;;;;;;;;;4987240;28;19988;-74
2023/01/29 09:34:34;;;;;;;;;;;;;;;;;;4980443;28;19925;-75
2023/01/29 09:37:01;;;;;;;;;;;;;;;;;;4994601;28;19944;-74
2023/01/29 09:39:27;;;;;;;;;;;;;;;;;;4987287;28;19925;-75
2023/01/29 09:41:53;;;;;;;;;;;;;;;;;;4992119;28;19925;-79
2023/01/29 09:44:20;;;;;;;;;;;;;;;;;;5003467;28;21517;-79
2023/01/29 09:46:46;;;;;;;;;;;;;;;;;;4997505;28;19972;-78
2023/01/29 09:49:12;;;;;;;;;;;;;;;;;;4986435;28;19941;-77
2023/01/29 09:51:38;;;;;;;;;;;;;;;;;;4986428;28;19929;-76
2023/01/29 09:54:05;;;;;;;;;;;;;;;;;;4980064;28;20012;-78
2023/01/29 09:56:31;;;;;;;;;;;;;;;;;;4997818;28;19921;-76
2023/01/29 09:58:57;;;;;;;;;;;;;;;;;;4981959;28;19921;-75
2023/01/29 10:01:24;;;;;;;;;;;;;;;;;;4984617;28;19913;-75
2023/01/29 10:03:50;;;;;;;;;;;;;;;;;;4996703;28;19917;-76
2023/01/29 10:06:16;;;;;;;;;;;;;;;;;;4977069;28;19926;-78
2023/01/29 10:08:43;;;;;;;;;;;;;;;;;;5010296;28;19928;-77
2023/01/29 10:11:09;;;;;;;;;;;;;;;;;;4975228;28;20345;-77
2023/01/29 10:13:35;;;;;;;;;;;;;;;;;;4998311;28;19968;-79
2023/01/29 10:16:01;;;;;;;;;;;;;;;;;;4985165;28;19929;-78
2023/01/29 10:18:28;;;;;;;;;;;;;;;;;;4994164;28;19917;-79
2023/01/29 10:20:54;;;;;;;;;;;;;;;;;;4987163;28;19918;-78
2023/01/29 10:23:20;;;;;;;;;;;;;;;;;;4986131;28;19921;-76
2023/01/29 10:25:46;;;;;;;;;;;;;;;;;;4981596;28;19921;-80
2023/01/29 10:28:13;;;;;;;;;;;;;;;;;;4983425;28;20344;-77
2023/01/29 10:30:39;;;;;;;;;;;;;;;;;;5007401;28;20451;-77
2023/01/29 10:33:05;;;;;;;;;;;;;;;;;;4986359;28;20321;-78
2023/01/29 10:35:31;;;;;;;;;;;;;;;;;;4977912;28;20461;-78
2023/01/29 10:37:58;;;;;;;;;;;;;;;;;;4970789;28;19926;-78
2023/01/29 10:40:24;;;;;;;;;;;;;;;;;;4984549;28;20416;-77
2023/01/29 10:42:50;;;;;;;;;;;;;;;;;;4978707;28;19980;-78
2023/01/29 10:45:16;;;;;;;;;;;;;;;;;;4966960;28;19917;-78
2023/01/29 10:47:43;;;;;;;;;;;;;;;;;;4975814;28;20378;-78
2023/01/29 10:50:09;;;;;;;;;;;;;;;;;;4974841;28;19926;-78
2023/01/29 10:52:36;;;;;;;;;;;;;;;;;;4978534;28;19934;-78
2023/01/29 10:55:02;;;;;;;;;;;;;;;;;;5005716;28;20423;-79
2023/01/29 10:57:28;;;;;;;;;;;;;;;;;;4985719;28;20294;-77
2023/01/29 10:59:54;;;;;;;;;;;;;;;;;;4967193;28;19922;-78
2023/01/29 11:02:21;;;;;;;;;;;;;;;;;;4985340;28;19917;-78
2023/01/29 11:04:47;;;;;;;;;;;;;;;;;;4985750;28;20424;-78
2023/01/29 11:07:13;;;;;;;;;;;;;;;;;;4977809;28;19979;-78
2023/01/29 11:09:40;;;;;;;;;;;;;;;;;;4989226;28;19917;-79
2023/01/29 11:12:06;;;;;;;;;;;;;;;;;;4989724;28;20451;-79
2023/01/29 11:14:32;;;;;;;;;;;;;;;;;;5006799;28;19943;-79
2023/01/29 11:16:58;;;;;;;;;;;;;;;;;;4989098;28;19913;-79
2023/01/29 11:19:25;;;;;;;;;;;;;;;;;;4989822;28;19968;-79
2023/01/29 11:21:51;;;;;;;;;;;;;;;;;;5010207;28;19921;-79
2023/01/29 11:24:17;;;;;;;;;;;;;;;;;;4988228;28;19917;-81
2023/01/29 11:26:44;;;;;;;;;;;;;;;;;;5001200;28;19925;-82
2023/01/29 11:29:10;;;;;;;;;;;;;;;;;;4988966;28;19917;-82
2023/01/29 11:31:36;;;;;;;;;;;;;;;;;;4967734;28;19921;-79
2023/01/29 11:34:03;;;;;;;;;;;;;;;;;;4981414;28;19932;-80
2023/01/29 11:36:31;;;;;;;;;;;;;;;;;;4987542;28;19921;-80
2023/01/29 11:38:59;;;;;;;;;;;;;;;;;;4978425;28;21707;-80
2023/01/29 11:41:26;;;;;;;;;;;;;;;;;;4977009;28;20374;-80
2023/01/29 11:43:52;;;;;;;;;;;;;;;;;;4978544;28;19918;-80
2023/01/29 11:46:18;;;;;;;;;;;;;;;;;;4978994;28;19921;-80
2023/01/29 11:48:44;;;;;;;;;;;;;;;;;;4982770;28;20428;-81
2023/01/29 11:51:11;;;;;;;;;;;;;;;;;;4981183;28;20028;-81
2023/01/29 11:53:37;;;;;;;;;;;;;;;;;;4948911;28;19922;-81
2023/01/29 11:56:03;;;;;;;;;;;;;;;;;;4964220;28;19950;-80
2023/01/29 11:58:32;;;;;;;;;;;;;;;;;;4950100;28;19915;-81
2023/01/29 12:00:59;;;;;;;;;;;;;;;;;;4959040;28;19918;-80
2023/01/29 12:03:26;;;;;;;;;;;;;;;;;;4970093;28;20282;-82
2023/01/29 12:05:52;;;;;;;;;;;;;;;;;;4947416;28;19922;-84
2023/01/29 12:08:21;;;;;;;;;;;;;;;;;;4944143;28;20342;-81
2023/01/29 12:10:47;;;;;;;;;;;;;;;;;;4949611;28;20475;-81
2023/01/29 12:13:20;;;;;;;;;;;;;;;;;;4967048;28;19922;-81
2023/01/29 12:15:46;;;;;;;;;;;;;;;;;;4961693;28;19925;-81
2023/01/29 12:18:12;;;;;;;;;;;;;;;;;;4970178;28;19922;-79
2023/01/29 12:20:39;;;;;;;;;;;;;;;;;;4957425;28;19922;-81
2023/01/29 12:23:05;;;;;;;;;;;;;;;;;;4945932;28;19914;-80
2023/01/29 12:25:31;;;;;;;;;;;;;;;;;;4968399;28;20649;-80
2023/01/29 12:27:57;;;;;;;;;;;;;;;;;;4972853;28;20487;-79
2023/01/29 12:30:24;;;;;;;;;;;;;;;;;;4968967;28;19921;-80
2023/01/29 12:32:50;;;;;;;;;;;;;;;;;;4944920;28;19965;-80
2023/01/29 12:35:17;;;;;;;;;;;;;;;;;;4930883;28;19929;-80
2023/01/29 12:37:44;;;;;;;;;;;;;;;;;;4934303;28;20334;-78
2023/01/29 12:40:10;;;;;;;;;;;;;;;;;;4919694;28;19978;-80
2023/01/29 12:42:36;;;;;;;;;;;;;;;;;;4972030;28;19949;-80
2023/01/29 12:45:04;;;;;;;;;;;;;;;;;;4978799;28;19958;-80
2023/01/29 12:47:30;;;;;;;;;;;;;;;;;;4956159;28;19966;-80
2023/01/29 12:49:56;;;;;;;;;;;;;;;;;;4968076;28;20322;-80
2023/01/29 12:52:22;;;;;;;;;;;;;;;;;;4979003;28;19981;-80
2023/01/29 12:54:48;;;;;;;;;;;;;;;;;;4996662;28;20328;-79
2023/01/29 12:57:15;;;;;;;;;;;;;;;;;;4976699;28;20072;-78
2023/01/29 12:59:42;;;;;;;;;;;;;;;;;;4994010;28;19917;-79
2023/01/29 13:02:08;;;;;;;;;;;;;;;;;;4987515;28;19925;-78
2023/01/29 13:04:34;;;;;;;;;;;;;;;;;;4970222;28;19936;-78
2023/01/29 13:07:00;;;;;;;;;;;;;;;;;;4969725;28;19925;-78
2023/01/29 13:09:26;;;;;;;;;;;;;;;;;;4990051;28;19913;-79
2023/01/29 13:11:53;;;;;;;;;;;;;;;;;;4992508;28;20482;-79
2023/01/29 13:14:19;;;;;;;;;;;;;;;;;;4970252;28;19929;-78
2023/01/29 13:16:45;;;;;;;;;;;;;;;;;;4977113;28;20377;-78
2023/01/29 13:19:11;;;;;;;;;;;;;;;;;;5004908;28;19921;-79
2023/01/29 13:21:38;;;;;;;;;;;;;;;;;;4994083;28;20528;-79
2023/01/29 13:24:04;;;;;;;;;;;;;;;;;;4996892;28;19918;-78
2023/01/29 13:26:31;;;;;;;;;;;;;;;;;;4980945;28;19980;-78
2023/01/29 13:28:57;;;;;;;;;;;;;;;;;;5000914;28;19922;-79
2023/01/29 13:31:23;;;;;;;;;;;;;;;;;;4976186;28;20385;-84
2023/01/29 13:33:50;;;;;;;;;;;;;;;;;;4989614;28;19921;-82
2023/01/29 13:36:16;;;;;;;;;;;;;;;;;;4999244;28;19933;-80
2023/01/29 13:38:43;;;;;;;;;;;;;;;;;;4991703;28;20328;-82
2023/01/29 13:41:10;;;;;;;;;;;;;;;;;;4981040;28;20282;-81
2023/01/29 13:43:36;;;;;;;;;;;;;;;;;;4983876;28;19926;-81
2023/01/29 13:46:02;;;;;;;;;;;;;;;;;;4980577;28;19945;-81
2023/01/29 13:48:31;;;;;;;;;;;;;;;;;;4983114;28;19969;-81
2023/01/29 13:50:57;;;;;;;;;;;;;;;;;;4982487;28;19921;-82
2023/01/29 13:53:23;;;;;;;;;;;;;;;;;;4974626;28;19933;-82
2023/01/29 13:55:49;;;;;;;;;;;;;;;;;;4972606;28;19984;-82
2023/01/29 13:58:16;;;;;;;;;;;;;;;;;;4969989;28;19968;-82
2023/01/29 14:00:42;;;;;;;;;;;;;;;;;;4964351;28;19944;-82
2023/01/29 14:03:10;;;;;;;;;;;;;;;;;;4963076;28;19913;-81
2023/01/29 14:05:36;;;;;;;;;;;;;;;;;;4975332;28;19945;-81
2023/01/29 14:08:03;;;;;;;;;;;;;;;;;;4969761;28;19933;-81
2023/01/29 14:10:29;;;;;;;;;;;;;;;;;;4958025;28;20374;-82
2023/01/29 14:12:55;;;;;;;;;;;;;;;;;;4961992;28;19925;-82
2023/01/29 14:15:21;;;;;;;;;;;;;;;;;;4973401;28;20386;-81
2023/01/29 14:17:47;;;;;;;;;;;;;;;;;;4980385;28;19999;-81
2023/01/29 14:20:14;;;;;;;;;;;;;;;;;;4968911;28;20656;-81
2023/01/29 14:22:40;;;;;;;;;;;;;;;;;;4966947;28;19949;-81
2023/01/29 14:25:06;;;;;;;;;;;;;;;;;;4980266;28;19926;-81
2023/01/29 14:27:33;;;;;;;;;;;;;;;;;;4952869;28;19930;-80
2023/01/29 14:29:59;;;;;;;;;;;;;;;;;;4980353;28;19925;-81
2023/01/29 14:32:25;;;;;;;;;;;;;;;;;;4959720;28;20507;-81
2023/01/29 14:34:52;;;;;;;;;;;;;;;;;;4964078;28;19918;-82
2023/01/29 14:37:18;;;;;;;;;;;;;;;;;;4951325;28;19972;-81
2023/01/29 14:39:44;;;;;;;;;;;;;;;;;;4958917;28;21394;-82
2023/01/29 14:42:10;;;;;;;;;;;;;;;;;;4961307;28;19917;-81
2023/01/29 14:44:36;;;;;;;;;;;;;;;;;;4947734;28;19918;-81
2023/01/29 14:47:03;;;;;;;;;;;;;;;;;;4969262;28;20464;-81
2023/01/29 14:49:29;;;;;;;;;;;;;;;;;;4965550;28;19925;-81
2023/01/29 14:51:58;;;;;;;;;;;;;;;;;;4969397;28;19930;-81
2023/01/29 14:54:24;;;;;;;;;;;;;;;;;;4994564;28;19928;-81
2023/01/29 14:56:51;;;;;;;;;;;;;;;;;;4977539;28;19921;-81
2023/01/29 14:59:17;;;;;;;;;;;;;;;;;;5011352;28;19914;-82
2023/01/29 15:01:43;;;;;;;;;;;;;;;;;;4988785;28;19917;-81
2023/01/29 15:04:09;;;;;;;;;;;;;;;;;;4996051;28;19917;-82
2023/01/29 15:06:35;;;;;;;;;;;;;;;;;;4989302;28;19930;-81
2023/01/29 15:09:02;;;;;;;;;;;;;;;;;;4971564;28;19924;-81
2023/01/29 15:11:34;;;;;;;;;;;;;;;;;;5002557;28;19921;-81
2023/01/29 15:14:00;;;;;;;;;;;;;;;;;;4961374;28;19916;-81
2023/01/29 15:16:26;;;;;;;;;;;;;;;;;;4988705;28;20396;-80
2023/01/29 15:18:53;;;;;;;;;;;;;;;;;;4998347;28;20036;-82
2023/01/29 15:21:19;;;;;;;;;;;;;;;;;;4988045;28;19985;-80
2023/01/29 15:23:47;;;;;;;;;;;;;;;;;;4985874;28;20325;-82
2023/01/29 15:26:14;;;;;;;;;;;;;;;;;;4988689;28;19930;-81
2023/01/29 15:28:41;;;;;;;;;;;;;;;;;;4975223;28;19945;-81
2023/01/29 15:31:08;;;;;;;;;;;;;;;;;;4988977;28;19921;-80
2023/01/29 15:33:34;;;;;;;;;;;;;;;;;;4991092;28;20331;-80
2023/01/29 15:36:01;;;;;;;;;;;;;;;;;;4998431;28;19979;-80
2023/01/29 15:38:28;;;;;;;;;;;;;;;;;;4984287;28;19924;-80
2023/01/29 15:40:55;;;;;;;;;;;;;;;;;;5001137;28;19953;-81
2023/01/29 15:43:21;;;;;;;;;;;;;;;;;;4980421;28;19913;-81
2023/01/29 15:45:48;;;;;;;;;;;;;;;;;;4965628;28;19925;-81
2023/01/29 15:48:14;;;;;;;;;;;;;;;;;;5005253;28;19926;-81
2023/01/29 15:50:40;;;;;;;;;;;;;;;;;;4977855;28;19921;-81
2023/01/29 15:53:06;;;;;;;;;;;;;;;;;;4985824;28;19964;-80
2023/01/29 15:55:33;;;;;;;;;;;;;;;;;;4985978;28;19917;-79
2023/01/29 15:57:59;;;;;;;;;;;;;;;;;;4981898;28;20432;-82
2023/01/29 16:00:26;;;;;;;;;;;;;;;;;;5004595;28;19940;-79
2023/01/29 16:02:52;;;;;;;;;;;;;;;;;;4997587;28;19987;-80
2023/01/29 16:05:20;;;;;;;;;;;;;;;;;;4985840;28;19956;-80
2023/01/29 16:07:47;;;;;;;;;;;;;;;;;;4986561;28;19972;-80
2023/01/29 16:10:13;;;;;;;;;;;;;;;;;;4989650;28;20007;-80
2023/01/29 16:12:39;;;;;;;;;;;;;;;;;;4980216;28;19922;-80
2023/01/29 16:15:05;;;;;;;;;;;;;;;;;;4982637;28;19928;-80
2023/01/29 16:17:34;;;;;;;;;;;;;;;;;;4980491;28;19914;-79
2023/01/29 16:20:00;;;;;;;;;;;;;;;;;;4988610;28;19968;-80
2023/01/29 16:22:26;;;;;;;;;;;;;;;;;;4980324;28;19967;-80
2023/01/29 16:24:52;;;;;;;;;;;;;;;;;;5000450;28;19987;-81
2023/01/29 16:27:19;;;;;;;;;;;;;;;;;;4993822;28;19925;-81
2023/01/29 16:29:45;;;;;;;;;;;;;;;;;;4993943;28;19914;-81
2023/01/29 16:32:12;;;;;;;;;;;;;;;;;;4989901;28;19925;-79
2023/01/29 16:34:38;;;;;;;;;;;;;;;;;;4995788;28;20969;-78
2023/01/29 16:37:05;;;;;;;;;;;;;;;;;;4978192;28;19922;-81
2023/01/29 16:39:31;;;;;;;;;;;;;;;;;;4983091;28;19918;-80
2023/01/29 16:41:57;;;;;;;;;;;;;;;;;;4997669;28;20419;-79
2023/01/29 16:44:24;;;;;;;;;;;;;;;;;;5000686;28;19921;-78
2023/01/29 16:46:51;;;;;;;;;;;;;;;;;;4977665;28;19956;-79
2023/01/29 16:49:17;;;;;;;;;;;;;;;;;;4991815;28;19914;-81
2023/01/29 16:51:43;;;;;;;;;;;;;;;;;;4990605;28;19963;-80
2023/01/29 16:54:09;;;;;;;;;;;;;;;;;;4983184;28;19995;-79
2023/01/29 16:56:35;;;;;;;;;;;;;;;;;;4985315;28;19914;-81
2023/01/29 16:59:02;;;;;;;;;;;;;;;;;;4992165;28;19917;-80
2023/01/29 17:01:28;;;;;;;;;;;;;;;;;;5008264;28;20569;-79
2023/01/29 17:03:55;;;;;;;;;;;;;;;;;;4991026;28;19922;-81
2023/01/29 17:06:21;;;;;;;;;;;;;;;;;;4989950;28;19988;-81